Palmyra, Indiana
Current Conditions -  °F | °C
As of 8:56 AM on Saturday 25 Oct 2014 (Local Time) from KSDF Reporting Station
Overcast Overcast  
Wind Chill: 55°   Ceiling: 4000
Heat Index: 55°   Visibility: 8mi
Dew Point: 50°   Wind: 12mph
Humidity: 83%   Direction: 150°SSE
Pressure: 30.01"   Gusts: NA
Location:  38.41°N, 86.11°W
Report Text: KSDF 251256Z 15010KT 8SM BKN040 OVC055 13/10 A3001 RMK AO2 SLP163 T01280100
Loading
Personal Weather Stations






























Interactive Weather Map
Tropical Storm Tracking
New forecast layout! Learn more

10-Day Weather Forecast

Advertisements
Track Severe Weather on mobile